Time;durP1;ratioP1;P1;durP2;ratioP2;P2;SDS_P1;SDS_P2;PMS_P1;PMS_P2;Temp;Humidity;BMP_temperature;BMP_pressure;BME280_temperature;BME280_humidity;BME280_pressure;Samples;Min_cycle;Max_cycle;Signal;HPM_P1;HPM_P2
2023/04/14 00:00:28;;;;;;;10.63;4.72;;;;;;;2.30;90.48;100805.59;4950639;28;20049;-75
2023/04/14 00:02:53;;;;;;;13.82;5.10;;;;;;;2.28;90.56;100812.47;4932005;29;20047;-75
2023/04/14 00:05:19;;;;;;;11.32;4.95;;;;;;;2.27;90.06;100806.44;4935676;29;20061;-75
2023/04/14 00:07:44;;;;;;;13.40;5.03;;;;;;;2.33;89.93;100811.72;4912466;29;20040;-75
2023/04/14 00:10:10;;;;;;;12.25;4.88;;;;;;;2.45;88.54;100816.28;4914793;29;20033;-75
2023/04/14 00:12:35;;;;;;;11.73;5.15;;;;;;;2.50;88.37;100813.78;4935894;29;20043;-75
2023/04/14 00:15:01;;;;;;;12.57;4.78;;;;;;;2.45;87.75;100816.28;4895147;29;20031;-75
2023/04/14 00:17:26;;;;;;;10.32;4.90;;;;;;;2.40;87.50;100823.09;4927278;29;20075;-75
2023/04/14 00:19:53;;;;;;;11.63;4.53;;;;;;;2.32;86.58;100814.28;4936944;29;20129;-75
2023/04/14 00:22:20;;;;;;;13.45;4.75;;;;;;;2.30;87.06;100815.94;4921450;29;20058;-70
2023/04/14 00:24:46;;;;;;;14.27;5.50;;;;;;;2.27;87.13;100815.88;4919697;29;20103;-75
2023/04/14 00:27:14;;;;;;;11.25;4.75;;;;;;;2.27;87.20;100819.38;4937278;29;20031;-70
2023/04/14 00:29:40;;;;;;;9.98;4.95;;;;;;;2.22;88.27;100821.81;4921309;29;20043;-70
2023/04/14 00:32:06;;;;;;;10.05;5.03;;;;;;;2.17;88.27;100823.44;4936904;29;20118;-70
2023/04/14 00:34:32;;;;;;;11.88;5.75;;;;;;;2.11;89.31;100825.00;4935520;29;20130;-70
2023/04/14 00:36:58;;;;;;;10.32;4.70;;;;;;;2.08;89.48;100823.22;4920046;29;20667;-70
2023/04/14 00:39:23;;;;;;;11.52;4.80;;;;;;;2.06;89.79;100815.44;4933948;28;20035;-70
2023/04/14 00:41:49;;;;;;;11.40;4.72;;;;;;;2.11;89.00;100823.28;4939285;29;20047;-70
2023/04/14 00:44:14;;;;;;;14.27;4.82;;;;;;;2.15;88.97;100826.84;4934399;29;20049;-70
2023/04/14 00:46:41;;;;;;;12.35;4.53;;;;;;;2.21;88.25;100821.78;4897011;29;20038;-70
2023/04/14 00:49:07;;;;;;;11.00;4.43;;;;;;;2.22;87.60;100823.53;4950614;28;20047;-70
2023/04/14 00:51:33;;;;;;;13.13;4.57;;;;;;;2.22;87.42;100824.41;4919383;29;20138;-70
2023/04/14 00:54:01;;;;;;;10.98;5.20;;;;;;;2.24;87.47;100827.91;4934628;29;20043;-70
2023/04/14 00:56:28;;;;;;;9.23;4.10;;;;;;;2.23;87.85;100827.88;4916122;29;20511;-70
2023/04/14 00:58:54;;;;;;;12.25;4.22;;;;;;;2.22;87.29;100833.88;4934638;29;20062;-70
2023/04/14 01:01:21;;;;;;;11.63;4.32;;;;;;;2.19;87.29;100839.00;4913063;29;20035;-70
2023/04/14 01:03:47;;;;;;;8.75;4.55;;;;;;;2.15;87.20;100837.16;4935165;29;20167;-75
2023/04/14 01:06:12;;;;;;;17.95;4.95;;;;;;;2.12;87.23;100842.28;4917030;29;20345;-75
2023/04/14 01:08:38;;;;;;;10.82;4.32;;;;;;;2.09;87.87;100835.31;4915373;29;20063;-75
2023/04/14 01:11:11;;;;;;;8.90;4.13;;;;;;;2.07;88.04;100845.63;4932565;29;20044;-75
2023/04/14 01:13:52;;;;;;;10.60;3.90;;;;;;;2.08;88.39;100841.31;4930709;29;20043;-75
2023/04/14 01:16:28;;;;;;;9.25;4.68;;;;;;;2.08;88.56;100837.03;4936533;28;20031;-75
2023/04/14 01:19:09;;;;;;;10.63;4.03;;;;;;;2.08;88.80;100837.03;4934118;29;20487;-75
2023/04/14 01:21:38;;;;;;;9.90;3.83;;;;;;;2.11;88.07;100838.81;4948227;29;20432;-75
2023/04/14 01:24:22;;;;;;;10.93;4.00;;;;;;;2.13;87.29;100834.56;4928902;29;20485;-75
2023/04/14 01:27:02;;;;;;;9.02;3.95;;;;;;;2.20;87.46;100835.56;4953315;28;20035;-75
2023/04/14 01:29:34;;;;;;;9.55;3.83;;;;;;;2.24;88.01;100839.94;4934947;29;20039;-75
2023/04/14 01:32:04;;;;;;;9.52;4.05;;;;;;;2.23;88.08;100840.81;4942687;28;20134;-75
2023/04/14 01:34:48;;;;;;;11.88;3.90;;;;;;;2.23;87.63;100833.91;4952015;29;20360;-75
2023/04/14 01:37:16;;;;;;;10.32;3.88;;;;;;;2.21;86.96;100832.13;4948360;28;20043;-75
2023/04/14 01:39:49;;;;;;;8.40;3.63;;;;;;;2.20;87.41;100830.41;4930591;29;20043;-70
2023/04/14 01:42:18;;;;;;;10.32;4.13;;;;;;;2.25;87.17;100837.41;4935734;29;20058;-70
2023/04/14 01:44:51;;;;;;;10.10;4.25;;;;;;;2.27;87.38;100840.03;4937076;29;20121;-70
2023/04/14 01:47:19;;;;;;;8.20;4.10;;;;;;;2.25;87.38;100837.41;4935172;29;20487;-70
2023/04/14 01:49:46;;;;;;;9.77;4.40;;;;;;;2.28;86.93;100849.53;4927050;29;20122;-75
2023/04/14 01:52:14;;;;;;;8.25;3.67;;;;;;;2.26;86.13;100851.22;4903135;29;20051;-75
2023/04/14 01:54:41;;;;;;;7.03;3.55;;;;;;;2.22;86.33;100849.41;4936164;28;20044;-75
2023/04/14 01:57:10;;;;;;;11.07;3.83;;;;;;;2.15;87.47;100850.09;4936002;29;20432;-75
2023/04/14 01:59:37;;;;;;;8.15;3.38;;;;;;;2.13;87.46;100852.66;4926899;29;20411;-75
2023/04/14 02:02:06;;;;;;;10.13;3.67;;;;;;;2.07;87.58;100849.94;4906931;28;20890;-70
2023/04/14 02:04:34;;;;;;;11.43;4.25;;;;;;;2.00;87.66;100854.06;4934712;29;20039;-71
2023/04/14 02:07:01;;;;;;;8.05;4.00;;;;;;;1.97;88.12;100859.19;4920374;29;20043;-70
2023/04/14 02:09:27;;;;;;;9.60;3.83;;;;;;;1.95;88.72;100854.81;4943378;28;20448;-70
2023/04/14 02:11:54;;;;;;;10.77;4.55;;;;;;;1.87;89.00;100852.06;4908877;29;20035;-70
2023/04/14 02:14:22;;;;;;;8.35;3.75;;;;;;;1.81;88.93;100859.63;4944300;29;20042;-70
2023/04/14 02:16:51;;;;;;;6.18;3.55;;;;;;;1.67;89.35;100854.16;4930779;29;20107;-70
2023/04/14 02:19:19;;;;;;;10.68;4.18;;;;;;;1.66;89.64;100855.84;4931701;29;20047;-70
2023/04/14 02:21:48;;;;;;;8.80;3.85;;;;;;;1.65;90.60;100859.28;4945561;28;20130;-70
2023/04/14 02:24:14;;;;;;;8.75;4.35;;;;;;;1.73;90.62;100874.97;4934347;29;20039;-70
2023/04/14 02:26:47;;;;;;;11.52;4.38;;;;;;;1.78;91.28;100862.16;4900889;29;20055;-70
2023/04/14 02:29:14;;;;;;;12.35;4.90;;;;;;;1.82;90.53;100874.31;4927982;29;20054;-70
2023/04/14 02:31:48;;;;;;;13.32;4.57;;;;;;;1.84;90.33;100873.50;4916299;29;20048;-70
2023/04/14 02:34:17;;;;;;;13.00;4.85;;;;;;;1.84;90.31;100872.63;4924202;29;20043;-70
2023/04/14 02:36:56;;;;;;;9.38;4.00;;;;;;;1.80;89.66;100876.00;4931560;29;20039;-70
2023/04/14 02:39:41;;;;;;;11.40;4.25;;;;;;;1.73;90.03;100872.38;4929642;29;20053;-70
2023/04/14 02:42:19;;;;;;;12.23;4.32;;;;;;;1.72;90.14;100876.69;4932568;29;20102;-70
2023/04/14 02:44:52;;;;;;;12.80;4.63;;;;;;;1.72;90.46;100883.53;4934931;29;20057;-70
2023/04/14 02:47:39;;;;;;;9.85;4.38;;;;;;;1.75;91.24;100885.31;4932575;28;20114;-70
2023/04/14 02:50:10;;;;;;;12.52;4.53;;;;;;;1.79;91.33;100889.75;4927894;29;20087;-70
2023/04/14 02:52:36;;;;;;;;;;;;;;;1.81;91.20;100890.63;4952672;28;20134;-70
2023/04/14 02:55:02;;;;;;;13.35;5.45;;;;;;;1.82;91.01;100879.47;4934680;29;19933;-70
2023/04/14 02:57:29;;;;;;;12.32;4.60;;;;;;;1.78;90.55;100885.41;4938180;29;20110;-70
2023/04/14 02:59:57;;;;;;;10.68;5.47;;;;;;;1.81;90.54;100885.47;4919166;29;20130;-70
2023/04/14 03:02:24;;;;;;;13.40;5.68;;;;;;;1.79;90.83;100884.56;4935844;29;20045;-70
2023/04/14 03:04:50;;;;;;;14.25;5.38;;;;;;;1.78;91.14;100888.88;4907140;29;20047;-75
2023/04/14 03:07:18;;;;;;;10.93;5.30;;;;;;;1.79;90.66;100884.56;4923275;29;20039;-75
2023/04/14 03:09:46;;;;;;;10.40;5.10;;;;;;;1.76;91.01;100885.38;4936291;29;20035;-75
2023/04/14 03:12:13;;;;;;;11.13;5.22;;;;;;;1.73;90.97;100891.31;4919633;29;20349;-75
2023/04/14 03:14:41;;;;;;;10.80;5.40;;;;;;;1.71;91.01;100895.59;4921222;29;20044;-75
2023/04/14 03:17:07;;;;;;;11.85;5.25;;;;;;;1.67;91.16;100890.31;4938901;29;20039;-75
2023/04/14 03:19:35;;;;;;;11.75;5.38;;;;;;;1.64;91.62;100885.94;4922847;28;20040;-75
2023/04/14 03:22:02;;;;;;;14.25;5.35;;;;;;;1.63;91.17;100883.31;4920770;29;20379;-75
2023/04/14 03:24:30;;;;;;;11.50;4.85;;;;;;;1.64;91.08;100885.03;4919319;29;20039;-75
2023/04/14 03:27:06;;;;;;;14.43;5.28;;;;;;;1.65;90.67;100887.69;4919741;29;20053;-75
2023/04/14 03:29:45;;;;;;;15.23;5.40;;;;;;;1.67;90.86;100880.84;4937177;29;20393;-75
2023/04/14 03:32:14;;;;;;;10.65;5.50;;;;;;;1.66;91.55;100873.91;4934514;29;20457;-70
2023/04/14 03:34:47;;;;;;;11.50;4.45;;;;;;;1.69;91.71;100880.88;4938716;29;20036;-75
2023/04/14 03:37:15;;;;;;;14.95;5.03;;;;;;;1.68;91.65;100890.34;4931089;29;20515;-75
2023/04/14 03:39:42;;;;;;;8.38;4.90;;;;;;;1.65;90.85;100882.53;4938949;29;20103;-75
2023/04/14 03:42:10;;;;;;;10.57;5.20;;;;;;;1.56;90.57;100887.44;4936894;28;20484;-75
2023/04/14 03:44:38;;;;;;;13.10;4.72;;;;;;;1.50;91.26;100890.75;4939249;29;20097;-75
2023/04/14 03:47:06;;;;;;;10.07;4.60;;;;;;;1.45;91.61;100894.94;4919440;29;20039;-75
2023/04/14 03:49:38;;;;;;;16.35;5.63;;;;;;;1.44;92.15;100894.84;4921441;29;20126;-75
2023/04/14 03:52:07;;;;;;;12.98;5.10;;;;;;;1.43;93.04;100906.03;4937867;28;20063;-75
2023/04/14 03:54:34;;;;;;;11.00;5.07;;;;;;;1.41;92.71;100899.94;4937791;28;20039;-75
2023/04/14 03:57:05;;;;;;;13.30;5.30;;;;;;;1.36;93.30;100900.69;4921129;29;20134;-75
2023/04/14 03:59:31;;;;;;;11.52;5.13;;;;;;;1.33;93.74;100904.91;4951025;28;20512;-75
2023/04/14 04:01:57;;;;;;;14.18;5.20;;;;;;;1.33;94.31;100895.44;4920534;29;20046;-75
2023/04/14 04:04:24;;;;;;;18.90;6.05;;;;;;;1.36;94.42;100907.56;4941561;29;20571;-75
2023/04/14 04:06:51;;;;;;;15.68;5.88;;;;;;;1.40;94.23;100901.66;4921867;29;20487;-70
2023/04/14 04:09:19;;;;;;;12.35;5.45;;;;;;;1.38;94.01;100898.19;4904601;29;20070;-70
2023/04/14 04:11:48;;;;;;;11.80;5.70;;;;;;;1.40;93.82;100901.66;4919110;29;20043;-70
2023/04/14 04:14:16;;;;;;;12.90;5.32;;;;;;;1.39;93.52;100899.91;4936317;29;20102;-70
2023/04/14 04:16:42;;;;;;;14.38;5.60;;;;;;;1.40;93.88;100903.38;4936669;29;20106;-75
2023/04/14 04:19:09;;;;;;;10.02;5.28;;;;;;;1.40;94.05;100905.97;4919233;29;20075;-75
2023/04/14 04:21:40;;;;;;;15.98;5.80;;;;;;;1.43;94.48;100911.22;4933704;29;20349;-75
2023/04/14 04:24:07;;;;;;;13.57;5.47;;;;;;;1.47;94.63;100913.03;4925422;28;20131;-70
2023/04/14 04:26:36;;;;;;;12.65;5.28;;;;;;;1.44;93.07;100915.50;4928980;29;20390;-70
2023/04/14 04:29:05;;;;;;;12.93;4.90;;;;;;;1.43;93.06;100916.38;4921530;29;20035;-70
2023/04/14 04:31:32;;;;;;;16.10;5.57;;;;;;;1.41;93.24;100912.84;4924437;29;20076;-70
2023/04/14 04:33:58;;;;;;;13.45;5.38;;;;;;;1.45;93.52;100919.84;4905533;29;20052;-70
2023/04/14 04:36:27;;;;;;;16.00;5.18;;;;;;;1.47;93.68;100913.03;4918195;29;20041;-70
2023/04/14 04:38:52;;;;;;;14.25;5.50;;;;;;;1.49;93.78;100912.22;4926691;29;20106;-70
2023/04/14 04:41:22;;;;;;;12.95;4.70;;;;;;;1.48;93.62;100909.59;4917891;29;20491;-70
2023/04/14 04:43:50;;;;;;;12.43;4.93;;;;;;;1.48;93.62;100909.59;4920556;29;20043;-70
2023/04/14 04:46:35;;;;;;;14.63;5.22;;;;;;;1.51;94.38;100910.56;4924322;28;20042;-70
2023/04/14 04:49:00;;;;;;;14.23;5.18;;;;;;;1.52;93.83;100912.34;4937672;29;20460;-70
2023/04/14 04:51:27;;;;;;;12.68;5.00;;;;;;;1.50;92.81;100908.81;4921237;29;20050;-70
2023/04/14 04:53:53;;;;;;;10.20;5.03;;;;;;;1.44;91.75;100910.34;4918822;29;20480;-70
2023/04/14 04:56:18;;;;;;;11.35;4.43;;;;;;;1.43;91.63;100916.38;4929524;29;20051;-70
2023/04/14 04:58:43;;;;;;;14.45;5.88;;;;;;;1.44;92.56;100913.84;4933703;29;20035;-70
2023/04/14 05:01:13;;;;;;;9.73;4.60;;;;;;;1.44;92.25;100908.66;4918756;29;20043;-70
2023/04/14 05:03:39;;;;;;;9.35;4.47;;;;;;;1.43;91.29;100913.78;4937260;29;20039;-75
2023/04/14 05:06:04;;;;;;;12.48;4.82;;;;;;;1.39;91.17;100905.06;4921399;29;20142;-75
2023/04/14 05:08:30;;;;;;;13.90;4.78;;;;;;;1.38;90.82;100904.22;4917297;29;20049;-75
2023/04/14 05:10:55;;;;;;;15.35;4.90;;;;;;;1.41;91.22;100900.84;4937077;29;20447;-75
2023/04/14 05:13:21;;;;;;;10.07;4.82;;;;;;;1.48;92.54;100904.44;4916643;29;20074;-75
2023/04/14 05:15:47;;;;;;;12.43;4.88;;;;;;;1.52;92.21;100906.28;4912005;29;20415;-75
2023/04/14 05:18:13;;;;;;;11.48;4.93;;;;;;;1.57;93.01;100904.69;4918196;29;20043;-75
2023/04/14 05:20:38;;;;;;;11.73;4.90;;;;;;;1.60;92.83;100911.66;4935084;29;20070;-75
2023/04/14 05:23:04;;;;;;;12.50;5.30;;;;;;;1.61;93.36;100901.38;4904101;29;20070;-75
2023/04/14 05:25:30;;;;;;;12.80;4.72;;;;;;;1.66;93.57;100904.06;4914566;28;20745;-75
2023/04/14 05:27:55;;;;;;;14.55;5.38;;;;;;;1.74;93.54;100912.88;4944793;28;20047;-75
2023/04/14 05:30:25;;;;;;;12.95;5.00;;;;;;;1.80;93.38;100907.88;4899013;29;20039;-75
2023/04/14 05:32:50;;;;;;;13.75;5.20;;;;;;;1.88;93.32;100900.28;4916968;29;20407;-75
2023/04/14 05:35:16;;;;;;;11.02;4.80;;;;;;;1.94;93.45;100902.16;4900439;29;20054;-70
2023/04/14 05:37:41;;;;;;;12.98;5.13;;;;;;;2.04;93.60;100906.69;4947175;29;20047;-70
2023/04/14 05:40:07;;;;;;;14.50;5.03;;;;;;;2.14;92.92;100906.13;4916969;28;20040;-71
2023/04/14 05:42:33;;;;;;;12.90;5.60;;;;;;;2.22;93.01;100901.97;4917229;29;20043;-70
2023/04/14 05:44:58;;;;;;;11.25;5.43;;;;;;;2.35;93.09;100903.13;4927129;29;20467;-75
2023/04/14 05:47:24;;;;;;;14.05;6.10;;;;;;;2.45;92.06;100904.22;4936343;29;20034;-71
2023/04/14 05:49:49;;;;;;;15.00;6.22;;;;;;;2.55;92.24;100906.16;4918253;29;20378;-70
2023/04/14 05:52:15;;;;;;;16.77;6.15;;;;;;;2.63;91.37;100908.94;4928029;29;20441;-70
2023/04/14 05:54:40;;;;;;;13.05;6.30;;;;;;;2.77;91.43;100907.53;4926685;28;20054;-71
2023/04/14 05:57:06;;;;;;;15.13;6.35;;;;;;;2.88;91.21;100912.91;4920863;29;20424;-71
2023/04/14 05:59:31;;;;;;;9.60;5.68;;;;;;;2.99;91.97;100914.84;4934429;29;20109;-71
2023/04/14 06:01:56;;;;;;;16.55;6.40;;;;;;;3.11;90.84;100921.13;4928693;29;20039;-71
2023/04/14 06:04:22;;;;;;;14.27;6.47;;;;;;;3.26;90.43;100919.69;4917567;29;20051;-71
2023/04/14 06:06:47;;;;;;;12.93;6.05;;;;;;;3.48;91.88;100910.63;4935151;29;20043;-71
2023/04/14 06:09:13;;;;;;;14.52;5.65;;;;;;;3.66;89.98;100923.03;4925018;29;20044;-71
2023/04/14 06:11:39;;;;;;;13.98;5.90;;;;;;;3.88;89.23;100918.22;4928963;29;20035;-71
2023/04/14 06:14:06;;;;;;;11.43;5.60;;;;;;;4.20;89.78;100915.28;4926660;28;20030;-69
2023/04/14 06:16:32;;;;;;;12.23;5.32;;;;;;;4.38;87.14;100915.53;4919482;28;20143;-69
2023/04/14 06:18:57;;;;;;;12.50;5.78;;;;;;;4.61;86.91;100908.13;4917277;29;20039;-69
2023/04/14 06:21:23;;;;;;;17.98;5.78;;;;;;;4.88;86.07;100901.53;4918004;29;20126;-69
2023/04/14 06:23:48;;;;;;;11.93;5.53;;;;;;;5.01;83.84;100903.44;4928207;29;20428;-69
2023/04/14 06:26:13;;;;;;;11.60;5.25;;;;;;;5.17;83.99;100904.50;4917371;29;20129;-69
2023/04/14 06:28:39;;;;;;;13.55;5.45;;;;;;;5.51;84.58;100910.03;4922374;29;20071;-69
2023/04/14 06:31:05;;;;;;;14.35;5.80;;;;;;;5.59;82.50;100898.84;4919517;29;20099;-70
2023/04/14 06:33:30;;;;;;;15.05;5.15;;;;;;;5.79;82.11;100909.41;4945649;29;20044;-69
2023/04/14 06:35:56;;;;;;;13.05;5.47;;;;;;;5.86;82.00;100901.72;4934444;29;20130;-70
2023/04/14 06:38:23;;;;;;;16.70;4.55;;;;;;;5.96;78.65;100904.38;4939341;28;20031;-69
2023/04/14 06:40:49;;;;;;;10.23;5.35;;;;;;;6.20;80.38;100901.97;4905676;29;20496;-69
2023/04/14 06:43:16;;;;;;;13.43;5.07;;;;;;;6.54;80.29;100899.59;4921587;29;20050;-70
2023/04/14 06:45:42;;;;;;;12.57;5.38;;;;;;;6.86;79.54;100911.91;4945166;29;20058;-70
2023/04/14 06:48:08;;;;;;;11.57;5.65;;;;;;;7.25;78.21;100901.66;4921415;29;20069;-69
2023/04/14 06:50:33;;;;;;;12.10;5.63;;;;;;;7.40;76.01;100900.84;4914864;29;20544;-70
2023/04/14 06:52:59;;;;;;;9.32;5.68;;;;;;;7.51;75.41;100899.09;4915803;29;20059;-70
2023/04/14 06:55:24;;;;;;;12.98;5.15;;;;;;;7.49;73.13;100899.97;4933231;29;20106;-70
2023/04/14 06:57:49;;;;;;;12.82;6.10;;;;;;;7.59;74.29;100896.50;4897425;29;20036;-74
2023/04/14 07:00:15;;;;;;;10.38;5.43;;;;;;;7.74;73.74;100895.66;4911794;29;20055;-74
2023/04/14 07:02:41;;;;;;;14.30;5.57;;;;;;;8.11;73.56;100890.44;4907132;29;20040;-74
2023/04/14 07:05:07;;;;;;;11.73;5.45;;;;;;;8.47;73.75;100886.91;4912524;29;20107;-74
2023/04/14 07:07:36;;;;;;;11.02;5.60;;;;;;;9.07;70.66;100885.00;4901253;29;20052;-74
2023/04/14 07:10:02;;;;;;;10.75;4.68;;;;;;;9.44;70.30;100871.69;4915869;29;20056;-74
2023/04/14 07:12:27;;;;;;;12.23;5.07;;;;;;;9.64;68.99;100872.44;4912946;29;20086;-74
2023/04/14 07:14:53;;;;;;;11.80;4.63;;;;;;;9.45;66.01;100873.44;4885515;29;20024;-74
2023/04/14 07:17:19;;;;;;;8.70;4.20;;;;;;;9.52;67.39;100875.13;4919633;29;20039;-74
2023/04/14 07:19:45;;;;;;;13.25;4.50;;;;;;;10.02;68.22;100879.09;4901245;29;20036;-74
2023/04/14 07:22:10;;;;;;;9.25;4.22;;;;;;;9.63;63.93;100870.69;4904573;29;20138;-74
2023/04/14 07:24:36;;;;;;;13.10;5.18;;;;;;;10.26;68.73;100871.00;4901204;29;20032;-74
2023/04/14 07:27:01;;;;;;;9.15;4.35;;;;;;;10.09;63.58;100873.81;4910891;29;20039;-74
2023/04/14 07:29:28;;;;;;;8.57;4.40;;;;;;;10.31;64.09;100867.47;4885443;29;20055;-74
2023/04/14 07:31:53;;;;;;;9.27;3.50;;;;;;;10.36;63.08;100870.94;4895648;29;20374;-74
2023/04/14 07:34:19;;;;;;;9.70;3.97;;;;;;;10.12;62.61;100868.53;4902848;29;20048;-74
2023/04/14 07:36:45;;;;;;;9.48;3.80;;;;;;;10.33;63.79;100867.44;4919636;29;20102;-74
2023/04/14 07:39:10;;;;;;;7.95;3.90;;;;;;;10.33;61.36;100859.59;4903695;29;20413;-74
2023/04/14 07:41:36;;;;;;;11.35;3.88;;;;;;;10.61;61.67;100851.47;4900377;29;20044;-74
2023/04/14 07:44:01;;;;;;;9.23;3.03;;;;;;;10.50;60.72;100857.72;4883376;29;20141;-74
2023/04/14 07:46:28;;;;;;;8.73;3.40;;;;;;;10.57;61.34;100845.38;4902586;29;20079;-74
2023/04/14 07:48:53;;;;;;;10.95;4.05;;;;;;;10.44;62.30;100849.03;4932554;29;20036;-74
2023/04/14 07:51:19;;;;;;;9.80;3.65;;;;;;;10.50;61.11;100842.00;4924619;29;20558;-74
2023/04/14 07:53:45;;;;;;;9.88;3.97;;;;;;;10.69;60.12;100852.25;4922380;29;20031;-74
2023/04/14 07:56:11;;;;;;;8.80;3.47;;;;;;;11.12;59.33;100853.44;4938541;29;20041;-74
2023/04/14 07:58:37;;;;;;;7.22;3.85;;;;;;;11.12;58.75;100843.84;4937821;29;20369;-74
2023/04/14 08:01:03;;;;;;;10.07;3.63;;;;;;;11.43;61.57;100849.50;4938256;29;20035;-74
2023/04/14 08:03:29;;;;;;;12.27;3.70;;;;;;;11.82;58.44;100850.63;4922535;29;20498;-74
2023/04/14 08:05:56;;;;;;;7.00;2.60;;;;;;;11.64;56.80;100849.16;4922967;29;20039;-74
2023/04/14 08:08:22;;;;;;;7.28;2.97;;;;;;;11.80;59.37;100855.91;4920029;29;20044;-74
2023/04/14 08:10:48;;;;;;;9.07;2.95;;;;;;;12.08;58.23;100853.72;4938191;29;20376;-75
2023/04/14 08:13:13;;;;;;;10.15;3.80;;;;;;;12.13;55.06;100856.25;4919013;29;20087;-74
2023/04/14 08:15:38;;;;;;;6.80;3.05;;;;;;;12.06;57.18;100855.50;4919396;29;20103;-74
2023/04/14 08:18:04;;;;;;;7.57;2.88;;;;;;;12.03;55.74;100854.69;4937047;29;20482;-75
2023/04/14 08:20:30;;;;;;;9.70;3.00;;;;;;;12.07;54.73;100856.38;4919256;29;20043;-74
2023/04/14 08:22:56;;;;;;;6.40;2.90;;;;;;;12.29;55.43;100846.31;4922252;29;20035;-74
2023/04/14 08:25:21;;;;;;;8.30;2.80;;;;;;;12.43;53.98;100844.31;4922055;29;20142;-75
2023/04/14 08:27:46;;;;;;;5.70;3.15;;;;;;;12.40;53.20;100847.00;4902804;29;20150;-74
2023/04/14 08:30:12;;;;;;;7.32;3.25;;;;;;;12.08;55.45;100858.09;4937297;29;20118;-75
2023/04/14 08:32:38;;;;;;;10.98;3.42;;;;;;;12.10;55.73;100851.06;4937511;29;20162;-74
2023/04/14 08:35:03;;;;;;;7.32;2.47;;;;;;;11.89;55.64;100857.50;4920021;29;20044;-75
2023/04/14 08:37:29;;;;;;;7.75;2.65;;;;;;;11.82;55.72;100856.75;4905687;28;20042;-73
2023/04/14 08:39:55;;;;;;;11.82;2.92;;;;;;;11.87;56.89;100856.69;4918915;29;20314;-74
2023/04/14 08:42:21;;;;;;;8.10;2.58;;;;;;;12.19;55.70;100856.13;4921318;29;20106;-74
2023/04/14 08:44:47;;;;;;;8.88;2.10;;;;;;;12.12;54.62;100858.03;4921881;28;20035;-74
2023/04/14 08:47:18;;;;;;;7.00;2.35;;;;;;;12.16;55.07;100857.97;4917535;29;20061;-74
2023/04/14 08:49:58;;;;;;;;;;;;;;;11.81;53.13;100848.88;4938562;29;20031;-74
2023/04/14 08:52:26;;;;;;;5.30;2.20;;;;;;;11.51;55.53;100853.75;4949670;28;19922;-75
2023/04/14 08:54:55;;;;;;;5.88;2.10;;;;;;;11.39;54.59;100858.31;5030785;23;20494;-74
2023/04/14 08:59:56;;;;;;;7.93;1.88;;;;;;;11.22;54.74;100853.31;5294058;23;19922;-74
2023/04/14 09:02:22;;;;;;;9.02;2.22;;;;;;;11.34;54.95;100847.00;5254765;23;20107;-74
2023/04/14 09:04:48;;;;;;;6.28;2.50;;;;;;;11.55;55.81;100855.41;5296305;23;20054;-72
2023/04/14 09:07:17;;;;;;;4.22;2.00;;;;;;;11.40;52.83;100852.16;5267237;23;20067;-72
2023/04/14 09:09:42;;;;;;;4.90;2.10;;;;;;;11.65;58.84;100843.91;5427029;23;20332;-72
2023/04/14 09:14:45;;;;;;;6.78;2.05;;;;;;;12.00;53.54;100849.50;5335900;23;20055;-69
2023/04/14 09:22:45;;;;;;;4.53;1.90;;;;;;;11.75;52.67;100847.22;5252490;23;20514;-69
2023/04/14 09:25:12;;;;;;;7.10;2.08;;;;;;;12.05;54.87;100868.66;5576762;23;20050;-73
2023/04/14 09:27:38;;;;;;;6.38;1.83;;;;;;;11.69;48.49;100842.09;5256102;23;20089;-72
2023/04/14 09:32:39;;;;;;;4.85;1.60;;;;;;;11.80;51.53;100848.03;5170802;23;20050;-68
2023/04/14 09:37:45;;;;;;;6.45;1.33;;;;;;;11.81;51.38;100846.25;5189627;23;20055;-75
2023/04/14 09:56:32;;;;;;;3.97;1.20;;;;;;;11.86;49.26;100823.44;4920592;26;20081;-69
2023/04/14 09:58:59;;;;;;;4.32;1.50;;;;;;;11.96;50.43;100819.78;4939327;28;20491;-69
2023/04/14 10:01:30;;;;;;;7.93;1.75;;;;;;;12.04;49.99;100822.25;4969769;28;20054;-69
2023/04/14 10:03:55;;;;;;;4.68;1.42;;;;;;;12.03;49.82;100808.28;4943725;28;20045;-70
2023/04/14 10:06:23;;;;;;;6.70;1.60;;;;;;;12.00;49.64;100812.72;4919440;29;20506;-69
2023/04/14 10:08:51;;;;;;;5.82;1.38;;;;;;;12.12;47.47;100817.75;4946992;28;20101;-69
2023/04/14 10:11:31;;;;;;;5.95;1.40;;;;;;;12.35;49.91;100804.16;4954672;28;20498;-69
2023/04/14 10:14:02;;;;;;;3.83;1.40;;;;;;;12.42;48.94;100815.44;4951353;29;20202;-70
2023/04/14 10:16:29;;;;;;;5.03;1.63;;;;;;;12.20;48.88;100805.34;4955505;28;20074;-69
2023/04/14 10:18:57;;;;;;;3.70;1.25;;;;;;;12.22;50.53;100794.78;4958866;28;20125;-69
2023/04/14 10:21:24;;;;;;;3.25;1.33;;;;;;;12.08;49.75;100795.94;4955471;28;20403;-69
2023/04/14 10:23:50;;;;;;;6.68;1.38;;;;;;;12.08;47.47;100792.41;4955689;28;20131;-69
2023/04/14 10:26:17;;;;;;;4.40;1.20;;;;;;;12.30;50.10;100785.88;4955492;28;20102;-69
2023/04/14 10:28:45;;;;;;;4.88;1.17;;;;;;;12.37;49.33;100780.47;4939443;28;20035;-69
2023/04/14 10:31:20;;;;;;;4.28;1.15;;;;;;;12.28;47.24;100776.28;4954738;28;20031;-69
2023/04/14 10:33:45;;;;;;;6.45;1.30;;;;;;;12.10;46.44;100767.00;4954961;28;20046;-69
2023/04/14 10:36:11;;;;;;;4.63;1.40;;;;;;;12.41;49.22;100767.28;4955531;28;20038;-69
2023/04/14 10:38:41;;;;;;;4.50;1.13;;;;;;;12.52;46.67;100776.69;4939422;28;20039;-69
2023/04/14 10:41:07;;;;;;;6.43;1.42;;;;;;;12.50;47.68;100778.47;4955295;28;20050;-69
2023/04/14 10:43:35;;;;;;;6.70;1.48;;;;;;;12.56;47.21;100770.47;4955036;28;20038;-70
2023/04/14 10:46:03;;;;;;;8.90;1.42;;;;;;;12.53;46.22;100796.78;4948450;28;20181;-70
2023/04/14 10:48:37;;;;;;;4.03;1.23;;;;;;;12.49;48.05;100777.59;4939363;28;20042;-69
2023/04/14 10:51:08;;;;;;;5.70;1.55;;;;;;;12.33;46.23;100763.94;4954978;28;20038;-68
2023/04/14 10:53:45;;;;;;;4.60;1.38;;;;;;;12.40;48.86;100765.53;4955173;28;20035;-68
2023/04/14 10:56:11;;;;;;;2.85;1.13;;;;;;;12.65;47.60;100772.91;4938957;28;20043;-69
2023/04/14 10:58:37;;;;;;;4.95;1.40;;;;;;;12.67;47.37;100764.97;4935846;29;20051;-68
2023/04/14 11:01:24;;;;;;;5.03;1.42;;;;;;;12.72;48.16;100766.59;4938725;28;20467;-68
2023/04/14 11:03:50;;;;;;;3.67;1.15;;;;;;;12.78;45.46;100765.59;4939207;28;20042;-70
2023/04/14 11:06:44;;;;;;;5.80;1.70;;;;;;;12.99;46.65;100753.75;4939640;28;20050;-69
2023/04/14 11:09:36;;;;;;;6.93;1.40;;;;;;;13.10;46.54;100753.47;4970790;28;20050;-70
2023/04/14 11:12:25;;;;;;;5.05;1.15;;;;;;;12.95;45.90;100749.44;4943499;28;20035;-69
2023/04/14 11:14:55;;;;;;;6.47;1.58;;;;;;;12.95;44.24;100741.56;4948052;28;20368;-68
2023/04/14 11:17:21;;;;;;;5.10;1.48;;;;;;;12.99;49.05;100748.47;4954029;29;20035;-69
2023/04/14 11:19:48;;;;;;;5.97;1.85;;;;;;;12.98;46.20;100744.13;4957413;28;20101;-68
2023/04/14 11:22:13;;;;;;;4.78;1.55;;;;;;;13.27;47.75;100742.56;4953144;29;20042;-69
2023/04/14 11:24:39;;;;;;;5.82;1.77;;;;;;;13.46;46.55;100741.22;4964371;28;20047;-69
2023/04/14 11:27:09;;;;;;;5.05;1.20;;;;;;;13.54;44.36;100735.75;4957560;28;20042;-68
2023/04/14 11:29:35;;;;;;;5.93;1.33;;;;;;;13.44;42.69;100731.63;4956626;28;20041;-68
2023/04/14 11:32:02;;;;;;;5.05;1.45;;;;;;;13.24;44.12;100735.59;4924697;28;20198;-69
2023/04/14 11:34:28;;;;;;;4.53;1.40;;;;;;;13.05;44.76;100734.31;4958188;28;20042;-69
2023/04/14 11:36:55;;;;;;;5.50;1.45;;;;;;;13.22;45.33;100723.41;4941863;28;20046;-69
2023/04/14 11:39:21;;;;;;;4.72;1.52;;;;;;;13.18;44.76;100722.59;4942010;28;20138;-70
2023/04/14 11:41:47;;;;;;;2.47;1.10;;;;;;;12.90;44.55;100736.41;4942938;28;20466;-69
2023/04/14 11:44:18;;;;;;;3.90;1.50;;;;;;;13.04;44.88;100745.75;4942647;28;20039;-74
2023/04/14 11:46:45;;;;;;;4.63;1.35;;;;;;;13.31;42.83;100724.00;4957853;28;20039;-74
2023/04/14 11:49:10;;;;;;;3.65;1.17;;;;;;;13.36;44.49;100736.22;4957982;28;20041;-74
2023/04/14 11:51:36;;;;;;;5.88;1.33;;;;;;;13.36;43.76;100739.75;4926411;28;20130;-74
2023/04/14 11:54:02;;;;;;;4.95;1.50;;;;;;;13.41;44.26;100735.22;4925947;28;20093;-74
2023/04/14 11:56:30;;;;;;;5.68;1.77;;;;;;;13.63;45.66;100727.63;4926096;28;20190;-74
2023/04/14 11:59:02;;;;;;;6.82;1.98;;;;;;;13.68;44.96;100733.63;4957414;28;20031;-74
2023/04/14 12:01:28;;;;;;;5.18;1.45;;;;;;;13.82;44.91;100735.91;4942200;28;20038;-74